Time;durP1;ratioP1;P1;durP2;ratioP2;P2;SDS_P1;SDS_P2;PMS_P1;PMS_P2;Temp;Humidity;BMP_temperature;BMP_pressure;BME280_temperature;BME280_humidity;BME280_pressure;Samples;Min_cycle;Max_cycle;Signal;HPM_P1;HPM_P2
2021/08/15 00:00:27;;;;;;;11.73;4.27;;;16.00;99.90;;;;;;5007608;28;20224;-44
2021/08/15 00:02:54;;;;;;;11.37;4.10;;;16.00;99.90;;;;;;5022850;28;20250;-46
2021/08/15 00:05:21;;;;;;;13.17;3.90;;;15.90;99.90;;;;;;5022426;28;20446;-46
2021/08/15 00:07:49;;;;;;;5.50;3.70;;;15.90;99.90;;;;;;5024353;28;20200;-44
2021/08/15 00:10:16;;;;;;;8.77;4.10;;;15.90;99.90;;;;;;5021539;28;20208;-46
2021/08/15 00:12:42;;;;;;;11.43;3.87;;;15.80;99.90;;;;;;5024825;28;20654;-44
2021/08/15 00:15:11;;;;;;;7.90;4.33;;;15.90;99.90;;;;;;5004597;28;20208;-44
2021/08/15 00:17:38;;;;;;;14.50;4.37;;;15.80;99.90;;;;;;5024884;28;20527;-44
2021/08/15 00:20:06;;;;;;;10.63;4.70;;;15.80;99.90;;;;;;5020379;28;20298;-45
2021/08/15 00:22:33;;;;;;;12.73;4.20;;;15.80;99.90;;;;;;5024185;28;20215;-47
2021/08/15 00:25:01;;;;;;;9.17;4.33;;;15.80;99.90;;;;;;5021708;28;20192;-46
2021/08/15 00:27:27;;;;;;;8.77;4.00;;;15.80;99.90;;;;;;5023804;28;20564;-44
2021/08/15 00:29:54;;;;;;;9.00;4.30;;;15.70;99.90;;;;;;5005101;28;20219;-46
2021/08/15 00:32:21;;;;;;;9.87;4.30;;;15.60;99.90;;;;;;5006072;28;20215;-44
2021/08/15 00:34:47;;;;;;;12.07;4.30;;;15.70;99.90;;;;;;5023039;28;20200;-46
2021/08/15 00:37:14;;;;;;;13.67;4.47;;;15.70;99.90;;;;;;5020417;28;20174;-44
2021/08/15 00:39:40;;;;;;;15.03;4.30;;;15.70;99.90;;;;;;5024029;28;20227;-44
2021/08/15 00:42:09;;;;;;;12.20;4.43;;;15.70;99.90;;;;;;5020000;28;20837;-44
2021/08/15 00:44:36;;;;;;;11.23;4.50;;;15.70;99.90;;;;;;5024190;28;20207;-45
2021/08/15 00:47:02;;;;;;;14.73;4.20;;;15.80;99.90;;;;;;5000185;28;20216;-47
2021/08/15 00:49:29;;;;;;;13.57;4.47;;;15.70;99.90;;;;;;5022885;28;20216;-45
2021/08/15 00:51:56;;;;;;;15.30;5.47;;;15.80;99.90;;;;;;5021689;28;20716;-46
2021/08/15 00:54:22;;;;;;;13.10;4.87;;;15.70;99.90;;;;;;5022160;28;20325;-45
2021/08/15 00:56:51;;;;;;;12.83;5.47;;;15.70;99.90;;;;;;5023542;28;20196;-48
2021/08/15 00:59:20;;;;;;;9.30;4.60;;;15.70;99.90;;;;;;5020813;28;20207;-44
2021/08/15 01:01:47;;;;;;;14.23;4.57;;;15.70;99.90;;;;;;5023482;28;20218;-45
2021/08/15 01:04:15;;;;;;;10.73;4.10;;;15.70;99.90;;;;;;5005988;28;20912;-45
2021/08/15 01:06:41;;;;;;;9.43;4.43;;;15.70;99.90;;;;;;5023722;28;20207;-44
2021/08/15 01:09:08;;;;;;;10.90;4.67;;;15.80;99.90;;;;;;5019466;28;20207;-44
2021/08/15 01:11:36;;;;;;;11.30;4.93;;;15.70;99.90;;;;;;5023941;28;20583;-45
2021/08/15 01:14:05;;;;;;;9.90;4.13;;;15.80;99.90;;;;;;5019915;28;20199;-47
2021/08/15 01:16:34;;;;;;;12.60;4.77;;;15.80;99.90;;;;;;5023508;28;20200;-44
2021/08/15 01:19:01;;;;;;;11.03;4.60;;;15.80;99.90;;;;;;5004110;28;20231;-44
2021/08/15 01:21:27;;;;;;;9.73;4.33;;;15.80;99.90;;;;;;5022581;28;20605;-45
2021/08/15 01:23:54;;;;;;;13.27;5.00;;;15.80;99.90;;;;;;5021774;28;20195;-44
2021/08/15 01:26:22;;;;;;;10.57;3.97;;;15.80;99.90;;;;;;5021469;28;20188;-44
2021/08/15 01:28:51;;;;;;;11.37;3.97;;;15.80;99.90;;;;;;5022688;28;20224;-44
2021/08/15 01:31:19;;;;;;;5.57;3.80;;;15.90;99.90;;;;;;5020532;28;20184;-45
2021/08/15 01:33:46;;;;;;;7.40;3.87;;;15.90;99.90;;;;;;5007007;28;20543;-43
2021/08/15 01:36:14;;;;;;;7.20;4.30;;;15.90;99.90;;;;;;5018927;28;20204;-45
2021/08/15 01:38:42;;;;;;;8.90;4.50;;;16.00;99.90;;;;;;5023281;28;20219;-44
2021/08/15 01:41:10;;;;;;;8.60;4.10;;;15.90;99.90;;;;;;5019006;28;20199;-44
2021/08/15 01:43:48;;;;;;;10.20;4.03;;;16.00;99.90;;;;;;5029392;28;20199;-48
2021/08/15 01:46:16;;;;;;;13.33;4.37;;;16.00;99.90;;;;;;5039707;28;20713;-44
2021/08/15 01:48:43;;;;;;;11.03;4.60;;;16.00;99.90;;;;;;5014752;28;20216;-47
2021/08/15 01:51:09;;;;;;;10.83;4.27;;;16.00;99.90;;;;;;5018489;28;20192;-44
2021/08/15 01:53:36;;;;;;;6.77;3.83;;;16.10;99.90;;;;;;5023451;28;20285;-43
2021/08/15 01:56:03;;;;;;;11.17;4.10;;;16.10;99.90;;;;;;5011809;28;20207;-44
2021/08/15 01:58:29;;;;;;;9.33;3.13;;;16.10;99.90;;;;;;5022875;28;20199;-46
2021/08/15 02:00:56;;;;;;;10.30;4.30;;;16.20;99.90;;;;;;5021032;28;20393;-45
2021/08/15 02:03:24;;;;;;;7.97;4.10;;;16.20;99.90;;;;;;5021113;28;20208;-44
2021/08/15 02:05:50;;;;;;;7.57;3.63;;;16.20;99.90;;;;;;5001877;28;20211;-44
2021/08/15 02:08:17;;;;;;;12.47;3.97;;;16.20;99.90;;;;;;5019804;28;20267;-44
2021/08/15 02:10:44;;;;;;;9.20;3.67;;;16.30;99.90;;;;;;5022829;28;20199;-46
2021/08/15 02:13:11;;;;;;;7.77;3.67;;;16.30;99.90;;;;;;5018856;28;20180;-44
2021/08/15 02:15:37;;;;;;;6.97;3.03;;;16.30;99.90;;;;;;5023081;28;20196;-43
2021/08/15 02:18:04;;;;;;;8.87;3.80;;;16.30;99.90;;;;;;5019190;28;20199;-43
2021/08/15 02:20:34;;;;;;;15.80;3.90;;;16.30;99.90;;;;;;5006554;28;20228;-43
2021/08/15 02:23:01;;;;;;;7.90;3.87;;;16.30;99.90;;;;;;5019298;28;20212;-45
2021/08/15 02:25:28;;;;;;;8.30;3.87;;;16.40;99.90;;;;;;5023166;28;20732;-47
2021/08/15 02:27:55;;;;;;;13.33;4.10;;;16.40;99.90;;;;;;5025117;28;20200;-44
2021/08/15 02:30:24;;;;;;;9.60;3.67;;;16.30;99.90;;;;;;5024253;28;20207;-44
2021/08/15 02:32:51;;;;;;;10.17;4.07;;;16.40;99.90;;;;;;5025476;28;20188;-48
2021/08/15 02:35:18;;;;;;;10.50;3.90;;;16.30;99.90;;;;;;5007260;28;21971;-43
2021/08/15 02:37:49;;;;;;;5.93;3.40;;;16.40;99.90;;;;;;5026079;28;20196;-46
2021/08/15 02:40:17;;;;;;;9.63;4.10;;;16.40;99.90;;;;;;5022759;28;20216;-44
2021/08/15 02:42:45;;;;;;;7.97;3.70;;;16.40;99.90;;;;;;5026480;28;20223;-44
2021/08/15 02:45:14;;;;;;;9.80;4.10;;;16.30;99.90;;;;;;5022273;28;20924;-45
2021/08/15 02:47:40;;;;;;;8.97;4.53;;;16.30;99.90;;;;;;5026419;28;20204;-47
2021/08/15 02:50:09;;;;;;;6.47;3.80;;;16.20;99.90;;;;;;5005323;28;20227;-45
2021/08/15 02:52:35;;;;;;;13.73;4.90;;;16.20;99.90;;;;;;5025877;28;20203;-44
2021/08/15 02:55:04;;;;;;;7.43;3.93;;;16.20;99.90;;;;;;5022958;28;20196;-45
2021/08/15 02:57:30;;;;;;;9.37;3.67;;;16.20;99.90;;;;;;5025683;28;20212;-44
2021/08/15 02:59:57;;;;;;;10.40;4.10;;;16.20;99.90;;;;;;5023757;28;20212;-46
2021/08/15 03:02:24;;;;;;;7.00;4.50;;;16.20;99.90;;;;;;5024133;28;20219;-45
2021/08/15 03:04:50;;;;;;;9.40;4.00;;;16.20;99.90;;;;;;5021348;28;20200;-49
2021/08/15 03:07:18;;;;;;;10.30;3.93;;;16.20;99.90;;;;;;5011105;28;20212;-44
2021/08/15 03:09:46;;;;;;;7.33;4.47;;;16.20;99.90;;;;;;5025712;28;20224;-44
2021/08/15 03:12:14;;;;;;;8.47;4.87;;;16.10;99.90;;;;;;5004597;28;20861;-45
2021/08/15 03:14:41;;;;;;;10.87;5.50;;;16.10;99.90;;;;;;5025947;28;20204;-44
2021/08/15 03:17:08;;;;;;;8.23;4.80;;;16.10;99.90;;;;;;5021779;28;20199;-45
2021/08/15 03:19:35;;;;;;;7.47;4.40;;;16.00;99.90;;;;;;5025379;28;20231;-45
2021/08/15 03:22:02;;;;;;;8.60;4.23;;;16.00;99.90;;;;;;5006127;28;20223;-45
2021/08/15 03:24:28;;;;;;;11.27;5.37;;;15.90;99.90;;;;;;5024933;28;20219;-46
2021/08/15 03:26:55;;;;;;;12.27;4.80;;;15.90;99.90;;;;;;5023911;28;20200;-46
2021/08/15 03:29:23;;;;;;;7.77;4.67;;;15.80;99.90;;;;;;5023301;28;21002;-46
2021/08/15 03:31:50;;;;;;;8.67;5.50;;;15.80;99.90;;;;;;5024973;28;20191;-44
2021/08/15 03:34:19;;;;;;;11.40;5.13;;;15.80;99.90;;;;;;5021790;28;20195;-46
2021/08/15 03:36:45;;;;;;;8.90;5.03;;;15.70;99.90;;;;;;5008413;28;20211;-45
2021/08/15 03:39:13;;;;;;;8.23;4.63;;;15.60;99.90;;;;;;5020863;28;20223;-45
2021/08/15 03:41:39;;;;;;;6.80;4.50;;;15.60;99.90;;;;;;5025390;28;20286;-44
2021/08/15 03:44:06;;;;;;;11.77;4.93;;;15.60;99.90;;;;;;5021229;28;20199;-48
2021/08/15 03:46:34;;;;;;;7.60;5.00;;;15.50;99.90;;;;;;5025186;28;20192;-44
2021/08/15 03:49:00;;;;;;;7.07;5.20;;;15.50;99.90;;;;;;5022037;28;20208;-45
2021/08/15 03:51:27;;;;;;;9.30;4.87;;;15.50;99.90;;;;;;5024298;28;20700;-44
2021/08/15 03:53:54;;;;;;;7.17;4.77;;;15.50;99.90;;;;;;5007233;28;20211;-48
2021/08/15 03:56:20;;;;;;;8.70;5.10;;;15.50;99.90;;;;;;5022909;28;20811;-45
2021/08/15 03:58:47;;;;;;;9.10;5.83;;;15.50;99.90;;;;;;5024815;28;20222;-45
2021/08/15 04:01:13;;;;;;;7.53;4.83;;;15.50;99.90;;;;;;5021079;28;20180;-44
2021/08/15 04:03:42;;;;;;;7.20;4.97;;;15.50;99.90;;;;;;5024752;28;20220;-45
2021/08/15 04:06:09;;;;;;;7.67;4.80;;;15.50;99.90;;;;;;5020683;28;20195;-45
2021/08/15 04:08:36;;;;;;;6.13;4.63;;;15.50;99.90;;;;;;4997191;28;20286;-45
2021/08/15 04:11:02;;;;;;;7.87;5.40;;;15.50;99.90;;;;;;5015619;28;20196;-44
2021/08/15 04:13:29;;;;;;;9.87;4.67;;;15.60;99.90;;;;;;5021445;28;20192;-47
2021/08/15 04:15:56;;;;;;;5.10;4.50;;;15.60;99.90;;;;;;5024277;28;20196;-44
2021/08/15 04:18:22;;;;;;;8.50;5.43;;;15.60;99.90;;;;;;5022905;28;20192;-44
2021/08/15 04:20:50;;;;;;;8.00;4.50;;;15.70;99.90;;;;;;5022295;28;20188;-46
2021/08/15 04:23:17;;;;;;;5.57;5.00;;;15.60;99.90;;;;;;5006850;28;20219;-43
2021/08/15 04:25:45;;;;;;;8.23;4.90;;;15.60;99.90;;;;;;5021664;28;20712;-45
2021/08/15 04:28:12;;;;;;;8.57;5.70;;;15.60;99.90;;;;;;5019481;28;20196;-45
2021/08/15 04:30:38;;;;;;;8.63;5.27;;;15.70;99.90;;;;;;5020323;28;20216;-43
2021/08/15 04:33:05;;;;;;;10.03;5.60;;;15.70;99.90;;;;;;5023632;28;20188;-47
2021/08/15 04:35:32;;;;;;;9.03;5.30;;;15.70;99.90;;;;;;5020339;28;20196;-45
2021/08/15 04:38:00;;;;;;;6.60;4.63;;;15.70;99.90;;;;;;5024168;28;20184;-43
2021/08/15 04:40:26;;;;;;;5.17;4.67;;;15.70;99.90;;;;;;5004831;28;20235;-43
2021/08/15 04:42:53;;;;;;;4.63;4.23;;;15.70;99.90;;;;;;5000086;28;21630;-43
2021/08/15 04:45:19;;;;;;;6.77;4.93;;;15.70;99.90;;;;;;5022253;28;20188;-44
2021/08/15 04:47:46;;;;;;;6.37;5.07;;;15.70;99.90;;;;;;5022036;28;20272;-44
2021/08/15 04:50:12;;;;;;;5.63;4.77;;;15.70;99.90;;;;;;5022901;28;20215;-44
2021/08/15 04:52:39;;;;;;;7.00;4.60;;;15.70;99.90;;;;;;5020364;28;20256;-43
2021/08/15 04:55:08;;;;;;;5.77;5.00;;;15.70;99.90;;;;;;5004659;28;20205;-44
2021/08/15 04:57:35;;;;;;;5.87;4.30;;;15.70;99.90;;;;;;5017871;28;20211;-45
2021/08/15 05:00:02;;;;;;;5.60;5.03;;;15.70;99.90;;;;;;5017021;28;20220;-43
2021/08/15 05:02:28;;;;;;;5.80;4.50;;;15.80;99.90;;;;;;5009736;28;20211;-45
2021/08/15 05:04:55;;;;;;;7.37;4.47;;;15.70;99.90;;;;;;5017005;28;20267;-43
2021/08/15 05:07:21;;;;;;;5.73;4.13;;;15.80;99.90;;;;;;5013724;28;20200;-45
2021/08/15 05:09:48;;;;;;;4.57;3.90;;;15.80;99.90;;;;;;4998411;28;20223;-45
2021/08/15 05:12:16;;;;;;;3.53;3.23;;;15.80;99.90;;;;;;5020763;28;20200;-44
2021/08/15 05:14:43;;;;;;;5.83;4.00;;;15.70;99.90;;;;;;5007804;28;20306;-44
2021/08/15 05:17:10;;;;;;;3.87;3.57;;;15.70;99.90;;;;;;5019990;28;20215;-45
2021/08/15 05:19:36;;;;;;;3.20;2.90;;;15.70;99.90;;;;;;5010072;28;20223;-45
2021/08/15 05:22:03;;;;;;;3.17;2.90;;;15.70;99.90;;;;;;5018727;28;20199;-48
2021/08/15 05:24:30;;;;;;;3.60;3.03;;;15.70;99.90;;;;;;5003821;28;20214;-45
2021/08/15 05:26:57;;;;;;;3.03;2.83;;;15.70;99.90;;;;;;5022365;28;20214;-45
2021/08/15 05:29:24;;;;;;;3.10;2.83;;;15.80;99.90;;;;;;5015512;28;20217;-48
2021/08/15 05:31:51;;;;;;;3.53;3.20;;;15.70;99.90;;;;;;5020265;28;20199;-45
2021/08/15 05:34:18;;;;;;;3.10;2.77;;;15.70;99.90;;;;;;5017640;28;20395;-44
2021/08/15 05:36:44;;;;;;;4.27;3.67;;;15.70;99.90;;;;;;5004621;28;20211;-48
2021/08/15 05:39:11;;;;;;;3.30;2.97;;;15.70;99.90;;;;;;5012829;28;20718;-47
2021/08/15 05:41:38;;;;;;;3.43;2.90;;;15.70;99.90;;;;;;4999985;28;20211;-44
2021/08/15 05:44:04;;;;;;;3.93;2.87;;;15.70;99.90;;;;;;5019960;28;20215;-45
2021/08/15 05:46:32;;;;;;;3.00;2.80;;;15.70;99.90;;;;;;5006906;28;20192;-44
2021/08/15 05:48:59;;;;;;;3.00;2.70;;;15.70;99.90;;;;;;5013109;28;20223;-43
2021/08/15 05:51:25;;;;;;;3.40;2.93;;;15.70;99.90;;;;;;5014344;28;22072;-44
2021/08/15 05:53:52;;;;;;;2.83;2.40;;;15.70;99.90;;;;;;5017858;28;20200;-44
2021/08/15 05:56:19;;;;;;;3.00;2.70;;;15.70;99.90;;;;;;5002728;28;20204;-43
2021/08/15 05:58:45;;;;;;;2.93;2.73;;;15.70;99.90;;;;;;5018041;28;20234;-44
2021/08/15 06:01:13;;;;;;;2.93;2.63;;;15.70;99.90;;;;;;5014746;28;20748;-46
2021/08/15 06:03:41;;;;;;;3.50;2.77;;;15.80;99.90;;;;;;5025009;28;20580;-47
2021/08/15 06:06:07;;;;;;;3.53;2.90;;;15.80;99.90;;;;;;5019803;28;20205;-44
2021/08/15 06:08:34;;;;;;;3.03;2.83;;;15.80;99.90;;;;;;5015096;28;22001;-44
2021/08/15 06:11:02;;;;;;;4.93;3.03;;;15.90;99.90;;;;;;5008147;28;20208;-44
2021/08/15 06:13:28;;;;;;;3.27;2.97;;;15.90;99.90;;;;;;5019824;28;20188;-44
2021/08/15 06:15:55;;;;;;;3.67;2.97;;;15.90;99.90;;;;;;5026458;28;20571;-43
2021/08/15 06:18:22;;;;;;;5.47;3.33;;;15.90;99.90;;;;;;5014937;28;20204;-44
2021/08/15 06:20:50;;;;;;;4.10;3.37;;;15.90;99.90;;;;;;5021624;28;20211;-43
2021/08/15 06:23:16;;;;;;;4.10;3.63;;;15.80;99.90;;;;;;5016490;28;20220;-44
2021/08/15 06:25:43;;;;;;;3.80;3.27;;;15.90;99.90;;;;;;5023427;28;20713;-45
2021/08/15 06:28:10;;;;;;;3.70;3.40;;;15.90;99.90;;;;;;5005095;28;20247;-44
2021/08/15 06:30:36;;;;;;;4.60;3.77;;;15.90;99.90;;;;;;5022014;28;20232;-44
2021/08/15 06:33:05;;;;;;;3.90;3.50;;;15.90;99.90;;;;;;5008398;28;20653;-44
2021/08/15 06:35:31;;;;;;;4.73;3.30;;;15.90;99.90;;;;;;5024197;28;20195;-45
2021/08/15 06:37:59;;;;;;;6.70;3.20;;;15.90;99.90;;;;;;5024615;28;20575;-46
2021/08/15 06:40:28;;;;;;;4.87;3.70;;;16.00;99.90;;;;;;5018649;28;20231;-44
2021/08/15 06:43:03;;;;;;;4.50;3.43;;;15.90;99.90;;;;;;5009041;28;20200;-44
2021/08/15 06:45:30;;;;;;;4.50;3.00;;;15.90;99.90;;;;;;5017125;28;20314;-45
2021/08/15 06:47:57;;;;;;;4.50;3.00;;;15.90;99.90;;;;;;5018800;28;20208;-45
2021/08/15 06:50:24;;;;;;;6.00;3.17;;;15.90;99.90;;;;;;5010763;28;20235;-45
2021/08/15 06:52:50;;;;;;;5.73;3.40;;;16.10;99.90;;;;;;5024805;28;20202;-45
2021/08/15 06:55:18;;;;;;;4.97;3.53;;;16.00;99.90;;;;;;5019382;28;20196;-44
2021/08/15 06:57:45;;;;;;;6.83;3.73;;;16.10;99.90;;;;;;5018156;28;20211;-45
2021/08/15 07:00:12;;;;;;;4.27;3.50;;;16.20;99.90;;;;;;4997736;28;20223;-45
2021/08/15 07:02:40;;;;;;;3.73;3.37;;;16.20;99.90;;;;;;5019558;28;20905;-46
2021/08/15 07:05:09;;;;;;;5.40;3.63;;;16.20;99.90;;;;;;5015234;28;20220;-47
2021/08/15 07:07:35;;;;;;;3.60;3.30;;;16.20;99.90;;;;;;5014432;28;20891;-44
2021/08/15 07:10:02;;;;;;;3.77;3.37;;;16.20;99.90;;;;;;5007518;28;20220;-46
2021/08/15 07:12:30;;;;;;;4.63;3.30;;;16.20;99.90;;;;;;5003602;28;20201;-45
2021/08/15 07:14:57;;;;;;;5.53;3.03;;;16.20;99.90;;;;;;5001759;28;20253;-46
2021/08/15 07:17:24;;;;;;;4.03;3.17;;;16.20;99.90;;;;;;5015554;28;20257;-45
2021/08/15 07:19:50;;;;;;;3.90;3.20;;;16.20;99.90;;;;;;5019207;28;20220;-44
2021/08/15 07:22:17;;;;;;;4.77;3.23;;;16.20;99.90;;;;;;5014592;28;20204;-45
2021/08/15 07:24:43;;;;;;;4.30;3.70;;;16.20;99.90;;;;;;5005885;28;20225;-47
2021/08/15 07:27:10;;;;;;;3.67;2.77;;;16.10;99.90;;;;;;5016655;28;20204;-48
2021/08/15 07:29:38;;;;;;;8.80;3.30;;;16.10;99.90;;;;;;5007394;28;20223;-45
2021/08/15 07:32:06;;;;;;;4.63;3.17;;;16.10;99.90;;;;;;5019980;28;20208;-45
2021/08/15 07:34:33;;;;;;;3.20;2.90;;;16.00;99.90;;;;;;5017360;28;20200;-44
2021/08/15 07:36:59;;;;;;;4.20;2.80;;;16.00;99.90;;;;;;5025072;28;20200;-44
2021/08/15 07:39:26;;;;;;;5.17;2.87;;;15.90;99.90;;;;;;5005373;28;20205;-44
2021/08/15 07:41:52;;;;;;;4.10;3.20;;;15.90;99.90;;;;;;5025024;28;20200;-47
2021/08/15 07:44:20;;;;;;;4.30;2.53;;;16.00;99.90;;;;;;4990029;28;20227;-45
2021/08/15 07:46:48;;;;;;;3.70;2.90;;;16.00;99.90;;;;;;5019264;28;20685;-48
2021/08/15 07:49:15;;;;;;;3.33;3.00;;;16.10;99.90;;;;;;5017514;28;20732;-49
2021/08/15 07:51:41;;;;;;;3.17;2.77;;;16.10;99.90;;;;;;5016349;28;20208;-48
2021/08/15 07:54:09;;;;;;;3.67;3.00;;;16.10;99.90;;;;;;5014140;28;20203;-52
2021/08/15 07:56:36;;;;;;;3.20;3.00;;;16.20;99.90;;;;;;5013392;28;20234;-47
2021/08/15 07:59:03;;;;;;;3.67;3.03;;;16.10;99.90;;;;;;4997103;28;20231;-48
2021/08/15 08:01:29;;;;;;;4.47;2.73;;;16.20;99.90;;;;;;5017111;28;20191;-45
2021/08/15 08:03:57;;;;;;;3.27;2.90;;;16.20;99.90;;;;;;5018958;28;20215;-45
2021/08/15 08:06:24;;;;;;;4.57;3.03;;;16.30;99.90;;;;;;5012467;28;20192;-44
2021/08/15 08:08:51;;;;;;;5.27;3.10;;;16.30;99.90;;;;;;5022367;28;20220;-45
2021/08/15 08:11:17;;;;;;;3.73;3.23;;;16.30;99.90;;;;;;5016063;28;20196;-47
2021/08/15 08:13:47;;;;;;;5.00;3.10;;;16.30;99.90;;;;;;5022393;28;20196;-45
2021/08/15 08:16:14;;;;;;;6.50;3.70;;;16.40;99.90;;;;;;5003390;28;20262;-45
2021/08/15 08:18:41;;;;;;;3.23;2.93;;;16.30;99.90;;;;;;5020906;28;20865;-44
2021/08/15 08:21:09;;;;;;;6.60;3.57;;;16.30;99.90;;;;;;5016729;28;20558;-45
2021/08/15 08:23:35;;;;;;;3.90;3.20;;;16.20;99.90;;;;;;5017867;28;20216;-43
2021/08/15 08:26:02;;;;;;;3.60;3.10;;;16.30;99.90;;;;;;5016412;28;20211;-45
2021/08/15 08:28:29;;;;;;;3.67;2.87;;;16.30;99.90;;;;;;5013256;28;20895;-44
2021/08/15 08:30:56;;;;;;;2.53;2.33;;;16.30;99.90;;;;;;4998189;28;20928;-46
2021/08/15 08:33:22;;;;;;;2.77;2.57;;;16.30;99.90;;;;;;5022722;28;20192;-48
2021/08/15 08:35:50;;;;;;;3.13;2.93;;;16.40;99.90;;;;;;5022957;28;20681;-51
2021/08/15 08:38:18;;;;;;;3.07;2.87;;;16.50;99.90;;;;;;5021509;28;20290;-44
2021/08/15 08:40:45;;;;;;;3.50;2.90;;;16.50;99.90;;;;;;5028186;28;20227;-43
2021/08/15 08:43:11;;;;;;;3.43;2.60;;;16.60;99.90;;;;;;5019588;28;20207;-46
2021/08/15 08:45:41;;;;;;;3.43;2.83;;;16.60;99.90;;;;;;5011012;28;20235;-46
2021/08/15 08:48:08;;;;;;;3.47;2.33;;;16.60;99.90;;;;;;5026775;28;20874;-43
2021/08/15 08:50:36;;;;;;;3.97;2.53;;;16.70;99.90;;;;;;5025412;28;20987;-47
2021/08/15 08:53:03;;;;;;;2.77;2.43;;;16.80;99.90;;;;;;5023349;28;20265;-44
2021/08/15 08:55:31;;;;;;;3.40;2.70;;;16.80;99.90;;;;;;5014961;28;20188;-46
2021/08/15 08:57:58;;;;;;;4.77;2.70;;;16.80;99.90;;;;;;5022163;28;20287;-45
2021/08/15 09:00:25;;;;;;;3.33;2.93;;;16.90;99.90;;;;;;5007922;28;20227;-46
2021/08/15 09:02:57;;;;;;;4.87;2.77;;;17.00;99.90;;;;;;5027116;28;20195;-44
2021/08/15 09:05:31;;;;;;;2.97;2.70;;;17.10;99.90;;;;;;5022212;28;20286;-46
2021/08/15 09:07:57;;;;;;;5.17;3.20;;;17.10;99.90;;;;;;5019468;28;20254;-49
2021/08/15 09:10:32;;;;;;;3.23;2.93;;;17.00;99.90;;;;;;5022748;28;20209;-50
2021/08/15 09:13:04;;;;;;;3.17;2.97;;;17.10;99.90;;;;;;5024508;28;20196;-47
2021/08/15 09:15:31;;;;;;;2.87;2.67;;;17.20;99.90;;;;;;5004417;28;20211;-47
2021/08/15 09:17:58;;;;;;;3.53;2.63;;;17.30;99.90;;;;;;5016112;28;20254;-43
2021/08/15 09:20:38;;;;;;;2.17;1.97;;;17.40;99.90;;;;;;5021524;28;20219;-43
2021/08/15 09:23:23;;;;;;;2.10;1.90;;;17.40;99.90;;;;;;5014994;28;20234;-46
2021/08/15 09:26:12;;;;;;;3.13;2.73;;;17.50;99.90;;;;;;5018575;28;20208;-46
2021/08/15 09:28:40;;;;;;;3.20;2.40;;;17.60;99.90;;;;;;5016842;28;20198;-42
2021/08/15 09:31:24;;;;;;;5.67;2.97;;;17.60;99.90;;;;;;5025718;28;20199;-51
2021/08/15 09:33:53;;;;;;;3.80;3.40;;;17.60;99.90;;;;;;5009949;28;20893;-50
2021/08/15 09:36:31;;;;;;;6.87;5.70;;;17.60;99.90;;;;;;5027759;28;20200;-48
2021/08/15 09:39:00;;;;;;;7.50;6.20;;;17.60;99.90;;;;;;5017231;28;20219;-48
2021/08/15 09:41:29;;;;;;;7.83;7.00;;;17.60;99.90;;;;;;5024056;28;20215;-45
2021/08/15 09:44:20;;;;;;;10.90;7.10;;;17.50;99.90;;;;;;5023082;28;20896;-46
2021/08/15 09:47:02;;;;;;;9.37;7.50;;;17.60;99.90;;;;;;4974037;28;20227;-49
2021/08/15 09:49:42;;;;;;;11.53;8.93;;;17.60;99.90;;;;;;5025949;28;20216;-43
2021/08/15 09:52:11;;;;;;;15.10;9.83;;;17.70;99.90;;;;;;5022688;28;20203;-45
2021/08/15 09:54:38;;;;;;;12.57;10.20;;;17.60;99.90;;;;;;5014766;28;20204;-43
2021/08/15 09:57:10;;;;;;;15.53;11.10;;;17.70;99.90;;;;;;5025667;28;20208;-46
2021/08/15 09:59:38;;;;;;;18.30;12.93;;;17.80;99.90;;;;;;5019763;28;20310;-45
2021/08/15 10:02:07;;;;;;;15.30;10.83;;;17.80;99.90;;;;;;5025168;28;20218;-48
2021/08/15 10:04:34;;;;;;;14.43;10.47;;;17.80;99.90;;;;;;5009527;28;20211;-45
2021/08/15 10:07:01;;;;;;;16.50;11.07;;;17.80;99.90;;;;;;5026636;28;20295;-47
2021/08/15 10:09:30;;;;;;;14.43;11.03;;;17.70;99.90;;;;;;5018667;28;20605;-46
2021/08/15 10:11:57;;;;;;;15.03;10.57;;;17.70;99.90;;;;;;5024288;28;20236;-46
2021/08/15 10:14:25;;;;;;;13.50;10.63;;;17.70;99.90;;;;;;5020838;28;20774;-44
2021/08/15 10:16:56;;;;;;;16.17;10.57;;;17.70;99.90;;;;;;5017923;28;20250;-45
2021/08/15 10:19:38;;;;;;;20.00;11.47;;;17.70;99.90;;;;;;5004349;28;21027;-48
2021/08/15 10:22:06;;;;;;;16.63;10.63;;;17.90;99.90;;;;;;5020801;28;20658;-45
2021/08/15 10:24:44;;;;;;;16.13;9.93;;;17.90;99.90;;;;;;5017029;28;20211;-45
2021/08/15 10:27:30;;;;;;;12.47;9.63;;;18.00;99.90;;;;;;5021955;28;20208;-45
2021/08/15 10:29:58;;;;;;;14.93;10.17;;;18.10;99.90;;;;;;5012918;28;21047;-46
2021/08/15 10:32:25;;;;;;;18.00;10.07;;;18.10;99.90;;;;;;5020417;28;20204;-44
2021/08/15 10:35:17;;;;;;;14.63;10.03;;;18.10;99.90;;;;;;5007721;28;20204;-47
2021/08/15 10:37:52;;;;;;;17.57;10.97;;;18.20;99.90;;;;;;5020954;28;20234;-45
2021/08/15 10:40:58;;;;;;;14.53;9.37;;;18.20;99.90;;;;;;5014470;28;20231;-46
2021/08/15 10:43:57;;;;;;;12.60;9.03;;;18.20;99.90;;;;;;5018877;28;20583;-45
2021/08/15 10:46:25;;;;;;;14.50;9.60;;;18.20;99.90;;;;;;5021901;28;20223;-43
2021/08/15 10:48:53;;;;;;;13.73;9.47;;;18.20;99.90;;;;;;5022574;28;20220;-46
2021/08/15 10:51:45;;;;;;;12.03;9.60;;;18.20;99.90;;;;;;5012142;28;20580;-44
2021/08/15 10:55:06;;;;;;;14.93;9.70;;;18.20;99.90;;;;;;5022248;28;20203;-47
2021/08/15 10:57:35;;;;;;;13.50;10.93;;;18.20;99.90;;;;;;5010026;28;20203;-43
2021/08/15 11:00:03;;;;;;;16.10;9.73;;;18.20;99.90;;;;;;5024700;28;20588;-46
2021/08/15 11:02:34;;;;;;;18.43;9.67;;;18.30;99.90;;;;;;5023216;28;20200;-45
2021/08/15 11:05:03;;;;;;;17.00;9.73;;;18.30;99.90;;;;;;5029556;28;20771;-45
2021/08/15 11:07:34;;;;;;;14.43;10.17;;;18.30;99.90;;;;;;5010536;28;20227;-44
2021/08/15 11:10:01;;;;;;;11.50;9.13;;;18.40;99.90;;;;;;5029795;28;20215;-45
2021/08/15 11:12:28;;;;;;;15.57;10.37;;;18.40;99.90;;;;;;5020606;28;20269;-44
2021/08/15 11:14:57;;;;;;;12.07;9.67;;;18.40;99.90;;;;;;5021160;28;20196;-50
2021/08/15 11:17:24;;;;;;;16.13;10.30;;;18.60;99.90;;;;;;5023867;28;20208;-45
2021/08/15 11:19:52;;;;;;;19.50;10.83;;;18.70;99.90;;;;;;5019902;28;20220;-45
2021/08/15 11:22:29;;;;;;;15.23;10.30;;;18.90;99.90;;;;;;5025424;28;20200;-45
2021/08/15 11:25:01;;;;;;;18.53;10.63;;;19.00;99.90;;;;;;5022136;28;20220;-46
2021/08/15 11:27:37;;;;;;;14.97;9.40;;;19.10;99.90;;;;;;5021687;28;20207;-45
2021/08/15 11:30:08;;;;;;;17.97;9.57;;;19.20;99.90;;;;;;5008996;28;20223;-48
2021/08/15 11:32:35;;;;;;;18.20;10.20;;;19.40;99.90;;;;;;5022578;28;20270;-44
2021/08/15 11:35:06;;;;;;;20.27;11.00;;;19.50;99.90;;;;;;5006769;28;20200;-45
2021/08/15 11:37:35;;;;;;;19.97;11.07;;;19.50;99.90;;;;;;5020835;28;20200;-45
2021/08/15 11:40:17;;;;;;;18.20;8.83;;;19.60;99.90;;;;;;4999096;28;20246;-45
2021/08/15 11:42:54;;;;;;;19.23;9.67;;;19.50;99.90;;;;;;5018259;28;20196;-47
2021/08/15 11:45:28;;;;;;;20.50;10.07;;;19.60;99.90;;;;;;5018111;28;20212;-47
2021/08/15 11:47:55;;;;;;;13.90;8.70;;;19.50;99.90;;;;;;5023795;28;20196;-44
2021/08/15 11:50:23;;;;;;;15.67;9.00;;;19.60;99.90;;;;;;5018629;28;20286;-46
2021/08/15 11:52:50;;;;;;;14.60;8.03;;;19.80;99.90;;;;;;5024328;28;20199;-48
2021/08/15 11:55:26;;;;;;;12.13;8.63;;;19.90;99.90;;;;;;5007161;28;20204;-44
2021/08/15 11:57:54;;;;;;;16.07;8.53;;;19.80;99.90;;;;;;5025331;28;20204;-46
2021/08/15 12:00:29;;;;;;;19.73;9.50;;;19.90;99.90;;;;;;5012512;28;20219;-46
2021/08/15 12:03:04;;;;;;;13.00;8.47;;;19.90;99.90;;;;;;5023163;28;20199;-47
2021/08/15 12:05:33;;;;;;;13.77;8.07;;;19.90;99.90;;;;;;5012655;28;20211;-47
2021/08/15 12:08:08;;;;;;;14.90;8.33;;;20.00;99.90;;;;;;5023404;28;20199;-46
2021/08/15 12:10:41;;;;;;;17.93;10.10;;;20.30;99.90;;;;;;5003840;28;20219;-45
2021/08/15 12:13:09;;;;;;;15.50;8.83;;;20.40;99.90;;;;;;5023338;28;20282;-46
2021/08/15 12:15:36;;;;;;;13.67;8.03;;;20.30;99.90;;;;;;5013947;28;20653;-46
2021/08/15 12:18:03;;;;;;;15.23;8.00;;;20.40;99.90;;;;;;5018291;28;20207;-45
2021/08/15 12:20:31;;;;;;;13.20;8.07;;;20.40;99.90;;;;;;5019350;28;21821;-47
2021/08/15 12:23:05;;;;;;;15.17;7.43;;;20.40;99.90;;;;;;5024873;28;20193;-46
2021/08/15 12:25:32;;;;;;;10.83;7.30;;;20.60;99.90;;;;;;5006181;28;20306;-47
2021/08/15 12:28:07;;;;;;;12.80;8.17;;;20.70;99.90;;;;;;5025366;28;20245;-49
2021/08/15 12:30:34;;;;;;;15.97;7.93;;;20.90;99.90;;;;;;5014122;28;20251;-49
2021/08/15 12:33:02;;;;;;;12.80;8.17;;;21.00;99.90;;;;;;5026185;28;20193;-47
2021/08/15 12:35:29;;;;;;;11.53;7.70;;;21.10;99.90;;;;;;5022468;28;20345;-47
2021/08/15 12:37:57;;;;;;;16.85;7.93;;;21.30;99.90;;;;;;5021450;28;20204;-49
2021/08/15 12:40:29;;;;;;;16.33;9.35;;;21.50;99.90;;;;;;5006038;28;20234;-49
2021/08/15 12:42:57;;;;;;;13.50;8.48;;;21.70;99.90;;;;;;5024530;28;20200;-50
2021/08/15 12:45:32;;;;;;;18.08;8.93;;;21.80;99.90;;;;;;5016702;28;20208;-46
2021/08/15 12:48:01;;;;;;;16.10;8.95;;;21.90;99.90;;;;;;5009410;28;21051;-47
2021/08/15 12:50:28;;;;;;;10.65;7.95;;;21.90;99.90;;;;;;5021664;28;20220;-47